sensor_id;sensor_type;location;lat;lon;timestamp;pressure;altitude;pressure_sealevel;temperature;humidity
61035;BME280;46916;40.564;-7.958;2023-03-14T00:01:08;97920.16;;;12.13;72.34
61035;BME280;46916;40.564;-7.958;2023-03-14T00:03:09;97921.81;;;12.14;72.42
61035;BME280;46916;40.564;-7.958;2023-03-14T00:05:10;97920.97;;;12.14;72.64
61035;BME280;46916;40.564;-7.958;2023-03-14T00:07:11;97921.94;;;12.13;72.15
61035;BME280;46916;40.564;-7.958;2023-03-14T00:09:13;97924.00;;;12.09;72.56
61035;BME280;46916;40.564;-7.958;2023-03-14T00:11:19;97921.47;;;12.08;72.64
61035;BME280;46916;40.564;-7.958;2023-03-14T00:13:21;97926.03;;;12.06;72.21
61035;BME280;46916;40.564;-7.958;2023-03-14T00:15:21;97927.94;;;12.04;72.28
61035;BME280;46916;40.564;-7.958;2023-03-14T00:17:22;97932.63;;;12.00;72.25
61035;BME280;46916;40.564;-7.958;2023-03-14T00:19:23;97924.19;;;11.97;72.29
61035;BME280;46916;40.564;-7.958;2023-03-14T00:21:24;97923.84;;;11.90;72.95
61035;BME280;46916;40.564;-7.958;2023-03-14T00:23:24;97926.59;;;11.88;72.99
61035;BME280;46916;40.564;-7.958;2023-03-14T00:25:25;97925.78;;;11.88;73.10
61035;BME280;46916;40.564;-7.958;2023-03-14T00:27:26;97928.50;;;11.86;73.42
61035;BME280;46916;40.564;-7.958;2023-03-14T00:29:27;97931.25;;;11.85;73.37
61035;BME280;46916;40.564;-7.958;2023-03-14T00:31:27;97932.91;;;11.86;72.86
61035;BME280;46916;40.564;-7.958;2023-03-14T00:33:28;97929.47;;;11.85;72.55
61035;BME280;46916;40.564;-7.958;2023-03-14T00:35:29;97928.84;;;11.82;72.61
61035;BME280;46916;40.564;-7.958;2023-03-14T00:37:29;97928.16;;;11.80;72.64
61035;BME280;46916;40.564;-7.958;2023-03-14T00:39:30;97936.03;;;11.80;72.85
61035;BME280;46916;40.564;-7.958;2023-03-14T00:41:31;97924.81;;;11.78;72.86
61035;BME280;46916;40.564;-7.958;2023-03-14T00:43:31;97926.75;;;11.76;73.24
61035;BME280;46916;40.564;-7.958;2023-03-14T00:45:32;97925.03;;;11.75;73.26
61035;BME280;46916;40.564;-7.958;2023-03-14T00:47:34;97920.75;;;11.74;73.50
61035;BME280;46916;40.564;-7.958;2023-03-14T00:49:35;97921.50;;;11.76;73.15
61035;BME280;46916;40.564;-7.958;2023-03-14T00:51:35;97916.25;;;11.76;72.99
61035;BME280;46916;40.564;-7.958;2023-03-14T00:53:38;97919.69;;;11.76;72.66
61035;BME280;46916;40.564;-7.958;2023-03-14T00:55:40;97911.81;;;11.76;72.52
61035;BME280;46916;40.564;-7.958;2023-03-14T00:57:42;97910.03;;;11.77;72.38
61035;BME280;46916;40.564;-7.958;2023-03-14T00:59:43;97909.19;;;11.76;72.58
61035;BME280;46916;40.564;-7.958;2023-03-14T01:01:44;97912.66;;;11.77;72.13
61035;BME280;46916;40.564;-7.958;2023-03-14T01:03:46;97915.28;;;11.77;72.66
61035;BME280;46916;40.564;-7.958;2023-03-14T01:05:46;97912.75;;;11.75;72.28
61035;BME280;46916;40.564;-7.958;2023-03-14T01:07:48;97915.66;;;11.72;72.04
61035;BME280;46916;40.564;-7.958;2023-03-14T01:09:51;97917.31;;;11.73;72.00
61035;BME280;46916;40.564;-7.958;2023-03-14T01:11:53;97911.94;;;11.75;71.51
61035;BME280;46916;40.564;-7.958;2023-03-14T01:13:54;97914.56;;;11.75;71.45
61035;BME280;46916;40.564;-7.958;2023-03-14T01:15:54;97917.19;;;11.75;71.31
61035;BME280;46916;40.564;-7.958;2023-03-14T01:17:55;97923.38;;;11.74;71.17
61035;BME280;46916;40.564;-7.958;2023-03-14T01:19:57;97917.44;;;11.72;71.38
61035;BME280;46916;40.564;-7.958;2023-03-14T01:21:58;97918.38;;;11.71;70.89
61035;BME280;46916;40.564;-7.958;2023-03-14T01:23:59;97923.78;;;11.69;70.75
61035;BME280;46916;40.564;-7.958;2023-03-14T01:26:01;97925.66;;;11.67;70.78
61035;BME280;46916;40.564;-7.958;2023-03-14T01:28:01;97919.72;;;11.65;70.67
61035;BME280;46916;40.564;-7.958;2023-03-14T01:30:04;97919.88;;;11.63;70.81
61035;BME280;46916;40.564;-7.958;2023-03-14T01:32:06;97934.88;;;11.61;70.48
61035;BME280;46916;40.564;-7.958;2023-03-14T01:34:07;97930.47;;;11.62;70.76
61035;BME280;46916;40.564;-7.958;2023-03-14T01:36:08;97928.66;;;11.62;71.18
61035;BME280;46916;40.564;-7.958;2023-03-14T01:38:10;97932.13;;;11.63;70.84
61035;BME280;46916;40.564;-7.958;2023-03-14T01:40:11;97933.22;;;11.60;70.96
61035;BME280;46916;40.564;-7.958;2023-03-14T01:42:12;97939.28;;;11.61;70.79
61035;BME280;46916;40.564;-7.958;2023-03-14T01:44:14;97940.13;;;11.61;71.28
61035;BME280;46916;40.564;-7.958;2023-03-14T01:46:29;97945.38;;;11.61;70.89
61035;BME280;46916;40.564;-7.958;2023-03-14T01:48:38;97942.75;;;11.61;70.84
61035;BME280;46916;40.564;-7.958;2023-03-14T01:50:41;97953.25;;;11.61;71.05
61035;BME280;46916;40.564;-7.958;2023-03-14T01:52:47;97952.56;;;11.59;70.93
61035;BME280;46916;40.564;-7.958;2023-03-14T01:54:54;97948.13;;;11.60;71.01
61035;BME280;46916;40.564;-7.958;2023-03-14T01:59:06;97948.13;;;11.60;70.76
61035;BME280;46916;40.564;-7.958;2023-03-14T02:01:08;97947.41;;;11.58;70.81
61035;BME280;46916;40.564;-7.958;2023-03-14T02:03:13;97945.63;;;11.58;70.82
61035;BME280;46916;40.564;-7.958;2023-03-14T02:05:21;97943.00;;;11.58;70.75
61035;BME280;46916;40.564;-7.958;2023-03-14T02:07:56;97940.38;;;11.58;70.95
61035;BME280;46916;40.564;-7.958;2023-03-14T02:10:03;97948.38;;;11.57;70.18
61035;BME280;46916;40.564;-7.958;2023-03-14T02:12:08;97941.47;;;11.56;70.42
61035;BME280;46916;40.564;-7.958;2023-03-14T02:14:36;97945.16;;;11.53;70.15
61035;BME280;46916;40.564;-7.958;2023-03-14T02:16:56;97941.94;;;11.50;70.69
61035;BME280;46916;40.564;-7.958;2023-03-14T02:20:19;97949.22;;;11.46;70.67
61035;BME280;46916;40.564;-7.958;2023-03-14T02:22:11;97943.50;;;11.41;71.10
61035;BME280;46916;40.564;-7.958;2023-03-14T02:24:35;97944.59;;;11.38;71.28
61035;BME280;46916;40.564;-7.958;2023-03-14T02:29:02;97945.69;;;11.36;71.71
61035;BME280;46916;40.564;-7.958;2023-03-14T02:31:04;97941.41;;;11.35;71.32
61035;BME280;46916;40.564;-7.958;2023-03-14T02:33:13;97948.41;;;11.34;71.68
61035;BME280;46916;40.564;-7.958;2023-03-14T02:35:22;97946.66;;;11.35;71.49
61035;BME280;46916;40.564;-7.958;2023-03-14T02:37:27;97950.19;;;11.34;71.56
61035;BME280;46916;40.564;-7.958;2023-03-14T02:39:40;97948.41;;;11.34;72.07
61035;BME280;46916;40.564;-7.958;2023-03-14T02:41:43;97943.44;;;11.31;72.19
61035;BME280;46916;40.564;-7.958;2023-03-14T02:43:45;97938.06;;;11.33;71.83
61035;BME280;46916;40.564;-7.958;2023-03-14T02:45:48;97934.59;;;11.32;71.96
61035;BME280;46916;40.564;-7.958;2023-03-14T02:47:56;97946.88;;;11.32;72.07
61035;BME280;46916;40.564;-7.958;2023-03-14T02:50:06;97940.06;;;11.29;72.43
61035;BME280;46916;40.564;-7.958;2023-03-14T02:52:07;97943.66;;;11.28;72.42
61035;BME280;46916;40.564;-7.958;2023-03-14T02:54:08;97947.13;;;11.29;72.46
61035;BME280;46916;40.564;-7.958;2023-03-14T02:56:09;97945.69;;;11.25;72.29
61035;BME280;46916;40.564;-7.958;2023-03-14T02:58:11;97950.09;;;11.24;72.50
61035;BME280;46916;40.564;-7.958;2023-03-14T03:00:12;97945.09;;;11.21;72.72
61035;BME280;46916;40.564;-7.958;2023-03-14T03:02:13;97940.69;;;11.22;72.68
61035;BME280;46916;40.564;-7.958;2023-03-14T03:04:14;97946.66;;;11.24;72.37
61035;BME280;46916;40.564;-7.958;2023-03-14T03:06:14;97946.66;;;11.24;72.61
61035;BME280;46916;40.564;-7.958;2023-03-14T03:08:15;97945.69;;;11.25;72.32
61035;BME280;46916;40.564;-7.958;2023-03-14T03:10:16;97943.78;;;11.27;71.89
61035;BME280;46916;40.564;-7.958;2023-03-14T03:12:18;97940.44;;;11.25;71.89
61035;BME280;46916;40.564;-7.958;2023-03-14T03:14:19;97942.25;;;11.24;71.90
61035;BME280;46916;40.564;-7.958;2023-03-14T03:16:19;97943.06;;;11.25;72.10
61035;BME280;46916;40.564;-7.958;2023-03-14T03:18:20;97937.13;;;11.23;72.04
61035;BME280;46916;40.564;-7.958;2023-03-14T03:20:22;97931.38;;;11.18;72.39
61035;BME280;46916;40.564;-7.958;2023-03-14T03:22:22;97930.78;;;11.14;72.72
61035;BME280;46916;40.564;-7.958;2023-03-14T03:24:24;97925.00;;;11.10;73.19
61035;BME280;46916;40.564;-7.958;2023-03-14T03:26:24;97928.53;;;11.09;73.69
61035;BME280;46916;40.564;-7.958;2023-03-14T03:28:25;97923.56;;;11.06;73.87
61035;BME280;46916;40.564;-7.958;2023-03-14T03:30:27;97928.91;;;11.05;74.36
61035;BME280;46916;40.564;-7.958;2023-03-14T03:32:27;97927.47;;;11.01;75.79
61035;BME280;46916;40.564;-7.958;2023-03-14T03:34:28;97925.69;;;11.01;75.74
61035;BME280;46916;40.564;-7.958;2023-03-14T03:36:30;97930.94;;;11.01;75.59
61035;BME280;46916;40.564;-7.958;2023-03-14T03:38:33;97934.50;;;11.00;76.53
61035;BME280;46916;40.564;-7.958;2023-03-14T03:40:36;97935.34;;;11.01;76.28
61035;BME280;46916;40.564;-7.958;2023-03-14T03:42:36;97932.03;;;10.99;76.21
61035;BME280;46916;40.564;-7.958;2023-03-14T03:44:39;97931.19;;;10.98;76.54
61035;BME280;46916;40.564;-7.958;2023-03-14T03:46:40;97930.47;;;10.96;76.53
61035;BME280;46916;40.564;-7.958;2023-03-14T03:48:42;97930.69;;;10.93;77.45
61035;BME280;46916;40.564;-7.958;2023-03-14T03:50:46;97936.19;;;10.90;77.30
61035;BME280;46916;40.564;-7.958;2023-03-14T03:52:49;97931.19;;;10.87;77.46
61035;BME280;46916;40.564;-7.958;2023-03-14T03:54:49;97932.59;;;10.80;77.77
61035;BME280;46916;40.564;-7.958;2023-03-14T03:56:50;97931.06;;;10.66;78.33
61035;BME280;46916;40.564;-7.958;2023-03-14T03:58:51;97937.34;;;10.52;78.69
61035;BME280;46916;40.564;-7.958;2023-03-14T04:00:51;97938.88;;;10.44;79.02
61035;BME280;46916;40.564;-7.958;2023-03-14T04:02:52;97939.09;;;10.40;78.90
61035;BME280;46916;40.564;-7.958;2023-03-14T04:04:53;97934.22;;;10.36;78.70
61035;BME280;46916;40.564;-7.958;2023-03-14T04:06:54;97940.28;;;10.36;79.59
61035;BME280;46916;40.564;-7.958;2023-03-14T04:08:55;97947.22;;;10.37;79.59
61035;BME280;46916;40.564;-7.958;2023-03-14T04:11:20;97951.38;;;10.40;79.53
61035;BME280;46916;40.564;-7.958;2023-03-14T04:13:53;97947.22;;;10.37;79.96
61035;BME280;46916;40.564;-7.958;2023-03-14T04:15:55;97949.94;;;10.36;80.39
61035;BME280;46916;40.564;-7.958;2023-03-14T04:17:59;97949.00;;;10.37;81.03
61035;BME280;46916;40.564;-7.958;2023-03-14T04:19:59;97948.75;;;10.40;80.46
61035;BME280;46916;40.564;-7.958;2023-03-14T04:22:08;97950.53;;;10.39;80.76
61035;BME280;46916;40.564;-7.958;2023-03-14T04:24:18;97952.53;;;10.36;81.11
61035;BME280;46916;40.564;-7.958;2023-03-14T04:26:22;97951.72;;;10.35;81.10
61035;BME280;46916;40.564;-7.958;2023-03-14T04:28:23;97941.25;;;10.35;81.41
61035;BME280;46916;40.564;-7.958;2023-03-14T04:30:24;97950.88;;;10.35;81.72
61035;BME280;46916;40.564;-7.958;2023-03-14T04:32:28;97948.13;;;10.36;81.83
61035;BME280;46916;40.564;-7.958;2023-03-14T04:34:30;97957.78;;;10.36;81.59
61035;BME280;46916;40.564;-7.958;2023-03-14T04:36:31;97962.31;;;10.34;81.47
61035;BME280;46916;40.564;-7.958;2023-03-14T04:38:37;97956.34;;;10.32;81.60
61035;BME280;46916;40.564;-7.958;2023-03-14T04:40:39;97949.56;;;10.29;81.86
61035;BME280;46916;40.564;-7.958;2023-03-14T04:42:41;97955.03;;;10.26;81.51
61035;BME280;46916;40.564;-7.958;2023-03-14T04:44:42;97957.78;;;10.25;81.05
61035;BME280;46916;40.564;-7.958;2023-03-14T04:46:44;97961.28;;;10.24;81.32
61035;BME280;46916;40.564;-7.958;2023-03-14T04:48:46;97960.41;;;10.25;80.91
61035;BME280;46916;40.564;-7.958;2023-03-14T04:50:47;97951.47;;;10.27;80.92
61035;BME280;46916;40.564;-7.958;2023-03-14T04:52:49;97948.97;;;10.26;80.90
61035;BME280;46916;40.564;-7.958;2023-03-14T04:54:50;97951.66;;;10.24;80.54
61035;BME280;46916;40.564;-7.958;2023-03-14T04:56:51;97958.06;;;10.20;80.57
61035;BME280;46916;40.564;-7.958;2023-03-14T04:58:52;97959.97;;;10.18;80.77
61035;BME280;46916;40.564;-7.958;2023-03-14T05:00:54;97954.63;;;10.20;80.29
61035;BME280;46916;40.564;-7.958;2023-03-14T05:03:24;97958.31;;;10.17;80.44
61035;BME280;46916;40.564;-7.958;2023-03-14T05:05:54;97953.19;;;10.15;81.08
61035;BME280;46916;40.564;-7.958;2023-03-14T05:08:18;97956.03;;;10.12;81.57
61035;BME280;46916;40.564;-7.958;2023-03-14T05:10:54;97953.44;;;10.12;81.57
61035;BME280;46916;40.564;-7.958;2023-03-14T05:13:11;97951.72;;;10.11;81.84
61035;BME280;46916;40.564;-7.958;2023-03-14T05:15:34;97958.75;;;10.11;82.00
61035;BME280;46916;40.564;-7.958;2023-03-14T05:17:56;97958.16;;;10.07;81.57
61035;BME280;46916;40.564;-7.958;2023-03-14T05:20:03;97952.91;;;10.07;81.44
61035;BME280;46916;40.564;-7.958;2023-03-14T05:22:33;97952.06;;;10.07;80.67
61035;BME280;46916;40.564;-7.958;2023-03-14T05:24:47;97949.47;;;10.07;81.01
61035;BME280;46916;40.564;-7.958;2023-03-14T05:27:06;97954.81;;;10.05;81.56
61035;BME280;46916;40.564;-7.958;2023-03-14T05:29:25;97956.00;;;10.01;82.29
61035;BME280;46916;40.564;-7.958;2023-03-14T05:31:46;97958.97;;;9.97;82.83
61035;BME280;46916;40.564;-7.958;2023-03-14T05:34:22;97969.50;;;9.95;83.78
61035;BME280;46916;40.564;-7.958;2023-03-14T05:36:49;97965.25;;;9.94;83.80
61035;BME280;46916;40.564;-7.958;2023-03-14T05:39:12;97958.44;;;9.91;84.21
61035;BME280;46916;40.564;-7.958;2023-03-14T05:41:42;97969.84;;;9.90;84.79
61035;BME280;46916;40.564;-7.958;2023-03-14T05:44:09;97979.72;;;9.87;84.95
61035;BME280;46916;40.564;-7.958;2023-03-14T05:46:29;97980.66;;;9.86;84.76
61035;BME280;46916;40.564;-7.958;2023-03-14T05:48:53;97989.56;;;9.83;84.52
61035;BME280;46916;40.564;-7.958;2023-03-14T05:51:16;97986.44;;;9.78;84.98
61035;BME280;46916;40.564;-7.958;2023-03-14T05:53:37;97993.59;;;9.76;85.07
61035;BME280;46916;40.564;-7.958;2023-03-14T05:56:08;97985.84;;;9.75;85.31
61035;BME280;46916;40.564;-7.958;2023-03-14T05:58:20;97989.28;;;9.75;85.39
61035;BME280;46916;40.564;-7.958;2023-03-14T06:00:39;97998.91;;;9.75;85.27
61035;BME280;46916;40.564;-7.958;2023-03-14T06:02:56;97995.59;;;9.73;85.20
61035;BME280;46916;40.564;-7.958;2023-03-14T06:05:04;98001.78;;;9.72;85.25
61035;BME280;46916;40.564;-7.958;2023-03-14T06:07:05;98003.53;;;9.71;85.63
61035;BME280;46916;40.564;-7.958;2023-03-14T06:09:06;97999.25;;;9.70;85.16
61035;BME280;46916;40.564;-7.958;2023-03-14T06:11:09;98005.44;;;9.69;85.52
61035;BME280;46916;40.564;-7.958;2023-03-14T06:13:10;98013.28;;;9.69;85.63
61035;BME280;46916;40.564;-7.958;2023-03-14T06:15:11;98012.44;;;9.68;85.29
61035;BME280;46916;40.564;-7.958;2023-03-14T06:17:12;98015.28;;;9.65;85.00
61035;BME280;46916;40.564;-7.958;2023-03-14T06:19:22;98005.03;;;9.62;85.29
61035;BME280;46916;40.564;-7.958;2023-03-14T06:21:23;98007.63;;;9.62;85.80
61035;BME280;46916;40.564;-7.958;2023-03-14T06:23:24;98004.19;;;9.62;86.39
61035;BME280;46916;40.564;-7.958;2023-03-14T06:25:26;98013.81;;;9.61;86.59
61035;BME280;46916;40.564;-7.958;2023-03-14T06:27:27;98015.59;;;9.61;86.70
61035;BME280;46916;40.564;-7.958;2023-03-14T06:29:30;98023.56;;;9.59;86.79
61035;BME280;46916;40.564;-7.958;2023-03-14T06:31:31;98030.69;;;9.57;86.77
61035;BME280;46916;40.564;-7.958;2023-03-14T06:33:35;98030.16;;;9.52;86.84
61035;BME280;46916;40.564;-7.958;2023-03-14T06:35:38;98019.81;;;9.51;87.21
61035;BME280;46916;40.564;-7.958;2023-03-14T06:37:40;98019.41;;;9.44;87.17
61035;BME280;46916;40.564;-7.958;2023-03-14T06:39:41;98026.53;;;9.42;87.24
61035;BME280;46916;40.564;-7.958;2023-03-14T06:41:51;98026.31;;;9.45;87.73
61035;BME280;46916;40.564;-7.958;2023-03-14T06:43:53;98021.91;;;9.46;87.53
61035;BME280;46916;40.564;-7.958;2023-03-14T06:45:55;98022.75;;;9.46;87.46
61035;BME280;46916;40.564;-7.958;2023-03-14T06:47:56;98023.81;;;9.43;87.70
61035;BME280;46916;40.564;-7.958;2023-03-14T06:50:01;98025.19;;;9.36;88.10
61035;BME280;46916;40.564;-7.958;2023-03-14T06:52:04;98028.63;;;9.37;88.28
61035;BME280;46916;40.564;-7.958;2023-03-14T06:54:04;98030.81;;;9.43;88.14
61035;BME280;46916;40.564;-7.958;2023-03-14T06:56:06;98026.31;;;9.45;88.15
61035;BME280;46916;40.564;-7.958;2023-03-14T06:58:08;98029.56;;;9.49;87.92
61035;BME280;46916;40.564;-7.958;2023-03-14T07:00:15;98026.09;;;9.48;87.51
61035;BME280;46916;40.564;-7.958;2023-03-14T07:02:16;98026.09;;;9.48;87.49
61035;BME280;46916;40.564;-7.958;2023-03-14T07:04:17;98031.34;;;9.48;87.25
61035;BME280;46916;40.564;-7.958;2023-03-14T07:06:22;98024.31;;;9.49;87.31
61035;BME280;46916;40.564;-7.958;2023-03-14T07:08:23;98033.00;;;9.49;87.74
61035;BME280;46916;40.564;-7.958;2023-03-14T07:10:23;98038.22;;;9.49;87.85
61035;BME280;46916;40.564;-7.958;2023-03-14T07:12:25;98044.28;;;9.50;87.82
61035;BME280;46916;40.564;-7.958;2023-03-14T07:14:25;98045.75;;;9.54;88.33
61035;BME280;46916;40.564;-7.958;2023-03-14T07:16:26;98048.03;;;9.58;88.68
61035;BME280;46916;40.564;-7.958;2023-03-14T07:18:29;98048.03;;;9.58;88.83
61035;BME280;46916;40.564;-7.958;2023-03-14T07:20:30;98054.94;;;9.59;89.28
61035;BME280;46916;40.564;-7.958;2023-03-14T07:22:33;98056.50;;;9.62;89.50
61035;BME280;46916;40.564;-7.958;2023-03-14T07:24:33;98054.72;;;9.62;89.72
61035;BME280;46916;40.564;-7.958;2023-03-14T07:26:35;98058.91;;;9.65;89.70
61035;BME280;46916;40.564;-7.958;2023-03-14T07:28:36;98058.06;;;9.64;89.82
61035;BME280;46916;40.564;-7.958;2023-03-14T07:30:41;98060.69;;;9.64;90.28
61035;BME280;46916;40.564;-7.958;2023-03-14T07:32:51;98066.88;;;9.63;90.26
61035;BME280;46916;40.564;-7.958;2023-03-14T07:34:52;98076.47;;;9.63;90.21
61035;BME280;46916;40.564;-7.958;2023-03-14T07:36:52;98072.94;;;9.64;90.79
61035;BME280;46916;40.564;-7.958;2023-03-14T07:38:53;98078.25;;;9.62;90.58
61035;BME280;46916;40.564;-7.958;2023-03-14T07:41:17;98074.81;;;9.62;90.83
61035;BME280;46916;40.564;-7.958;2023-03-14T07:43:37;98078.16;;;9.64;91.16
61035;BME280;46916;40.564;-7.958;2023-03-14T07:45:38;98071.84;;;9.66;91.04
61035;BME280;46916;40.564;-7.958;2023-03-14T07:47:38;98077.09;;;9.66;90.59
61035;BME280;46916;40.564;-7.958;2023-03-14T07:49:39;98081.50;;;9.66;90.87
61035;BME280;46916;40.564;-7.958;2023-03-14T07:51:40;98078.78;;;9.67;90.48
61035;BME280;46916;40.564;-7.958;2023-03-14T07:53:40;98096.16;;;9.68;90.46
61035;BME280;46916;40.564;-7.958;2023-03-14T07:55:43;98098.75;;;9.68;90.87
61035;BME280;46916;40.564;-7.958;2023-03-14T07:57:44;98096.97;;;9.69;90.40
61035;BME280;46916;40.564;-7.958;2023-03-14T07:59:45;98099.25;;;9.74;90.64
61035;BME280;46916;40.564;-7.958;2023-03-14T08:01:46;98099.25;;;9.74;90.04
61035;BME280;46916;40.564;-7.958;2023-03-14T08:03:47;98106.91;;;9.77;89.99
61035;BME280;46916;40.564;-7.958;2023-03-14T08:05:49;98114.63;;;9.78;90.14
61035;BME280;46916;40.564;-7.958;2023-03-14T08:07:50;98117.16;;;9.80;90.20
61035;BME280;46916;40.564;-7.958;2023-03-14T08:09:51;98119.88;;;9.78;90.17
61035;BME280;46916;40.564;-7.958;2023-03-14T08:11:52;98112.84;;;9.79;90.25
61035;BME280;46916;40.564;-7.958;2023-03-14T08:13:53;98121.31;;;9.82;90.07
61035;BME280;46916;40.564;-7.958;2023-03-14T08:15:53;98133.34;;;9.85;89.96
61035;BME280;46916;40.564;-7.958;2023-03-14T08:17:55;98131.47;;;9.87;89.74
61035;BME280;46916;40.564;-7.958;2023-03-14T08:19:55;98136.59;;;9.88;89.45
61035;BME280;46916;40.564;-7.958;2023-03-14T08:21:56;98145.06;;;9.92;89.21
61035;BME280;46916;40.564;-7.958;2023-03-14T08:23:57;98150.31;;;9.92;89.36
61035;BME280;46916;40.564;-7.958;2023-03-14T08:25:57;98152.19;;;9.90;89.24
61035;BME280;46916;40.564;-7.958;2023-03-14T08:27:58;98152.19;;;9.90;89.07
61035;BME280;46916;40.564;-7.958;2023-03-14T08:29:59;98150.31;;;9.92;89.14
61035;BME280;46916;40.564;-7.958;2023-03-14T08:31:59;98155.25;;;10.08;91.17
61035;BME280;46916;40.564;-7.958;2023-03-14T08:34:00;98149.38;;;10.30;91.32
61035;BME280;46916;40.564;-7.958;2023-03-14T08:36:02;98154.72;;;10.52;90.85
61035;BME280;46916;40.564;-7.958;2023-03-14T08:38:03;98155.28;;;10.69;89.51
61035;BME280;46916;40.564;-7.958;2023-03-14T08:40:05;98165.59;;;10.83;88.13
61035;BME280;46916;40.564;-7.958;2023-03-14T08:42:10;98172.06;;;10.90;87.41
61035;BME280;46916;40.564;-7.958;2023-03-14T08:44:11;98174.06;;;10.98;86.16
61035;BME280;46916;40.564;-7.958;2023-03-14T08:46:14;98173.75;;;11.02;86.02
61035;BME280;46916;40.564;-7.958;2023-03-14T08:48:15;98176.88;;;11.07;85.74
61035;BME280;46916;40.564;-7.958;2023-03-14T08:50:16;98175.91;;;11.08;85.21
61035;BME280;46916;40.564;-7.958;2023-03-14T08:52:17;98168.03;;;11.08;84.89
61035;BME280;46916;40.564;-7.958;2023-03-14T08:54:17;98176.13;;;11.05;84.94
61035;BME280;46916;40.564;-7.958;2023-03-14T08:56:19;98176.03;;;11.07;84.28
61035;BME280;46916;40.564;-7.958;2023-03-14T08:58:19;98185.44;;;11.09;84.50
61035;BME280;46916;40.564;-7.958;2023-03-14T09:00:20;98181.91;;;11.10;83.93
61035;BME280;46916;40.564;-7.958;2023-03-14T09:02:22;98187.72;;;11.14;84.03
61035;BME280;46916;40.564;-7.958;2023-03-14T09:04:23;98186.31;;;11.21;83.61
61035;BME280;46916;40.564;-7.958;2023-03-14T09:06:23;98191.34;;;11.24;83.54
61035;BME280;46916;40.564;-7.958;2023-03-14T09:08:24;98196.22;;;11.29;83.04
61035;BME280;46916;40.564;-7.958;2023-03-14T09:10:24;98192.66;;;11.30;82.68
61035;BME280;46916;40.564;-7.958;2023-03-14T09:12:25;98194.34;;;11.31;82.77
61035;BME280;46916;40.564;-7.958;2023-03-14T09:14:26;98201.84;;;11.35;82.77
61035;BME280;46916;40.564;-7.958;2023-03-14T09:16:27;98204.72;;;11.44;82.84
61035;BME280;46916;40.564;-7.958;2023-03-14T09:18:27;98205.34;;;11.47;82.13
61035;BME280;46916;40.564;-7.958;2023-03-14T09:20:29;98208.53;;;11.51;82.34
61035;BME280;46916;40.564;-7.958;2023-03-14T09:22:30;98202.97;;;11.55;81.68
61035;BME280;46916;40.564;-7.958;2023-03-14T09:24:31;98205.25;;;11.60;81.72
61035;BME280;46916;40.564;-7.958;2023-03-14T09:26:31;98193.06;;;11.59;82.10
61035;BME280;46916;40.564;-7.958;2023-03-14T09:28:32;98199.16;;;11.59;81.89
61035;BME280;46916;40.564;-7.958;2023-03-14T09:30:33;98201.53;;;11.51;81.87
61035;BME280;46916;40.564;-7.958;2023-03-14T09:32:33;98201.75;;;11.48;82.21
61035;BME280;46916;40.564;-7.958;2023-03-14T09:34:34;98198.41;;;11.46;82.37
61035;BME280;46916;40.564;-7.958;2023-03-14T09:36:35;98195.13;;;11.20;82.38
61035;BME280;46916;40.564;-7.958;2023-03-14T09:38:38;98202.81;;;10.99;83.89
61035;BME280;46916;40.564;-7.958;2023-03-14T09:40:40;98215.81;;;10.77;85.45
61035;BME280;46916;40.564;-7.958;2023-03-14T09:42:41;98214.31;;;10.61;86.26
61035;BME280;46916;40.564;-7.958;2023-03-14T09:44:53;98214.97;;;10.52;87.40
61035;BME280;46916;40.564;-7.958;2023-03-14T09:46:58;98214.13;;;10.52;87.52
61035;BME280;46916;40.564;-7.958;2023-03-14T09:49:01;98217.22;;;10.46;87.49
61035;BME280;46916;40.564;-7.958;2023-03-14T09:51:05;98219.69;;;10.47;87.83
61035;BME280;46916;40.564;-7.958;2023-03-14T09:53:21;98216.19;;;10.59;87.49
61035;BME280;46916;40.564;-7.958;2023-03-14T09:55:24;98213.38;;;10.86;86.83
61035;BME280;46916;40.564;-7.958;2023-03-14T09:57:26;98223.31;;;11.05;86.67
61035;BME280;46916;40.564;-7.958;2023-03-14T09:59:28;98220.41;;;11.21;85.40
61035;BME280;46916;40.564;-7.958;2023-03-14T10:01:31;98216.03;;;11.33;85.04
61035;BME280;46916;40.564;-7.958;2023-03-14T10:03:34;98219.91;;;11.51;84.35
61035;BME280;46916;40.564;-7.958;2023-03-14T10:05:35;98217.16;;;11.64;83.85
61035;BME280;46916;40.564;-7.958;2023-03-14T10:07:36;98216.59;;;11.72;83.67
61035;BME280;46916;40.564;-7.958;2023-03-14T10:09:38;98207.31;;;11.90;82.72
61035;BME280;46916;40.564;-7.958;2023-03-14T10:11:39;98210.91;;;12.00;82.29
61035;BME280;46916;40.564;-7.958;2023-03-14T10:14:03;98214.72;;;12.19;81.65
61035;BME280;46916;40.564;-7.958;2023-03-14T10:16:05;98208.47;;;12.31;81.33
61035;BME280;46916;40.564;-7.958;2023-03-14T10:18:12;98210.50;;;12.50;80.88
61035;BME280;46916;40.564;-7.958;2023-03-14T10:21:02;98216.66;;;12.60;79.54
61035;BME280;46916;40.564;-7.958;2023-03-14T10:25:27;98222.03;;;12.70;79.38
61035;BME280;46916;40.564;-7.958;2023-03-14T10:27:31;98227.38;;;12.79;78.55
61035;BME280;46916;40.564;-7.958;2023-03-14T10:29:33;98218.09;;;12.96;77.92
61035;BME280;46916;40.564;-7.958;2023-03-14T10:34:02;98218.56;;;13.01;77.01
61035;BME280;46916;40.564;-7.958;2023-03-14T10:36:25;98215.09;;;13.01;76.89
61035;BME280;46916;40.564;-7.958;2023-03-14T10:38:35;98223.72;;;13.03;75.50
61035;BME280;46916;40.564;-7.958;2023-03-14T10:40:41;98228.84;;;13.04;75.74
61035;BME280;46916;40.564;-7.958;2023-03-14T10:42:46;98223.72;;;13.03;75.11
61035;BME280;46916;40.564;-7.958;2023-03-14T10:44:55;98221.91;;;13.03;74.91
61035;BME280;46916;40.564;-7.958;2023-03-14T10:46:59;98217.28;;;12.96;74.70
61035;BME280;46916;40.564;-7.958;2023-03-14T10:49:05;98229.63;;;12.84;75.27
61035;BME280;46916;40.564;-7.958;2023-03-14T10:53:08;98228.28;;;13.22;75.33
61035;BME280;46916;40.564;-7.958;2023-03-14T10:55:12;98227.47;;;13.42;74.89
61035;BME280;46916;40.564;-7.958;2023-03-14T10:57:13;98226.38;;;13.66;72.79
61035;BME280;46916;40.564;-7.958;2023-03-14T10:59:15;98218.47;;;13.86;71.70
61035;BME280;46916;40.564;-7.958;2023-03-14T11:01:41;98223.97;;;14.04;69.04
61035;BME280;46916;40.564;-7.958;2023-03-14T11:03:47;98221.22;;;14.16;68.59
61035;BME280;46916;40.564;-7.958;2023-03-14T11:05:53;98220.03;;;14.29;68.20
61035;BME280;46916;40.564;-7.958;2023-03-14T11:10:42;98215.63;;;14.40;66.83